Time;durP1;ratioP1;P1;durP2;ratioP2;P2;SDS_P1;SDS_P2;PMS_P1;PMS_P2;Temp;Humidity;BMP_temperature;BMP_pressure;BME280_temperature;BME280_humidity;BME280_pressure;Samples;Min_cycle;Max_cycle;Signal;HPM_P1;HPM_P2
2023/05/02 00:00:13;;;;;;;25.33;17.80;;;15.40;99.90;;;;;;5027342;28;20585;-28
2023/05/02 00:02:45;;;;;;;21.52;16.20;;;15.30;99.90;;;;;;5039966;28;20643;-29
2023/05/02 00:05:12;;;;;;;23.33;16.42;;;15.30;99.90;;;;;;5035312;28;20204;-29
2023/05/02 00:07:40;;;;;;;26.58;17.15;;;15.30;99.90;;;;;;5026507;28;20877;-28
2023/05/02 00:10:07;;;;;;;25.27;17.73;;;15.30;99.90;;;;;;5044789;28;20216;-29
2023/05/02 00:12:35;;;;;;;24.52;17.33;;;15.30;99.90;;;;;;5043363;28;20215;-28
2023/05/02 00:15:02;;;;;;;25.20;17.90;;;15.30;99.90;;;;;;5039690;28;20219;-29
2023/05/02 00:17:29;;;;;;;32.45;18.95;;;15.30;99.90;;;;;;5026151;28;20315;-28
2023/05/02 00:19:56;;;;;;;26.73;19.40;;;15.30;99.90;;;;;;5041342;28;20205;-28
2023/05/02 00:22:24;;;;;;;27.50;18.60;;;15.30;99.90;;;;;;5039878;28;20653;-29
2023/05/02 00:24:56;;;;;;;30.80;19.87;;;15.20;99.90;;;;;;5039980;28;20619;-28
2023/05/02 00:27:24;;;;;;;29.73;19.87;;;15.30;99.90;;;;;;5037018;28;20309;-28
2023/05/02 00:29:52;;;;;;;26.23;18.95;;;15.20;99.90;;;;;;5044275;28;20287;-28
2023/05/02 00:32:19;;;;;;;31.60;20.77;;;15.30;99.90;;;;;;5044845;28;20204;-29
2023/05/02 00:34:49;;;;;;;31.53;20.80;;;15.30;99.90;;;;;;5031242;28;20758;-29
2023/05/02 00:37:19;;;;;;;32.85;22.52;;;15.30;99.90;;;;;;5029614;28;20244;-28
2023/05/02 00:39:48;;;;;;;34.65;22.50;;;15.20;99.90;;;;;;5024737;28;20284;-29
2023/05/02 00:42:15;;;;;;;38.47;21.93;;;15.20;99.90;;;;;;5026156;28;20307;-29
2023/05/02 00:44:45;;;;;;;33.30;22.33;;;15.20;99.90;;;;;;5025097;28;20292;-28
2023/05/02 00:47:16;;;;;;;31.70;22.37;;;15.20;99.90;;;;;;5026247;28;20633;-29
2023/05/02 00:49:46;;;;;;;31.23;22.33;;;15.20;99.90;;;;;;5038793;28;20828;-29
2023/05/02 00:52:15;;;;;;;33.65;21.48;;;15.20;99.90;;;;;;5045201;28;20201;-28
2023/05/02 00:54:42;;;;;;;29.50;21.80;;;15.20;99.90;;;;;;5043066;28;20322;-29
2023/05/02 00:57:10;;;;;;;35.28;22.83;;;15.20;99.90;;;;;;5038166;28;20477;-29
2023/05/02 00:59:37;;;;;;;32.17;22.50;;;15.10;99.90;;;;;;5039460;28;20203;-29
2023/05/02 01:02:10;;;;;;;34.20;22.27;;;15.10;99.90;;;;;;5031712;28;20201;-29
2023/05/02 01:04:49;;;;;;;36.13;23.43;;;15.10;99.90;;;;;;5027521;28;20204;-29
2023/05/02 01:07:41;;;;;;;35.13;24.20;;;15.10;99.90;;;;;;5045113;28;20228;-28
2023/05/02 01:10:18;;;;;;;35.40;23.45;;;15.10;99.90;;;;;;5036627;28;20210;-29
2023/05/02 01:13:07;;;;;;;36.88;21.95;;;15.10;99.90;;;;;;5042960;28;20769;-28
2023/05/02 01:15:40;;;;;;;37.57;24.93;;;15.00;99.90;;;;;;5026458;28;20287;-29
2023/05/02 01:18:14;;;;;;;38.42;24.98;;;15.10;99.90;;;;;;5026880;28;20749;-29
2023/05/02 01:20:45;;;;;;;34.87;23.30;;;15.00;99.90;;;;;;5042363;28;20195;-29
2023/05/02 01:24:04;;;;;;;37.67;24.90;;;15.00;99.90;;;;;;5042467;28;20753;-28
2023/05/02 01:26:44;;;;;;;40.33;25.23;;;15.00;99.90;;;;;;5036376;28;20215;-29
2023/05/02 01:29:14;;;;;;;39.63;25.23;;;14.90;99.90;;;;;;5035237;28;20757;-29
2023/05/02 01:31:45;;;;;;;36.23;24.50;;;14.90;99.90;;;;;;5042692;28;20224;-29
2023/05/02 01:34:22;;;;;;;39.03;24.20;;;14.90;99.90;;;;;;5037409;28;20299;-29
2023/05/02 01:36:50;;;;;;;39.38;25.52;;;14.90;99.90;;;;;;5027995;28;20789;-29
2023/05/02 01:39:25;;;;;;;37.20;25.88;;;14.90;99.90;;;;;;5030330;28;20235;-29
2023/05/02 01:41:55;;;;;;;36.93;25.07;;;14.80;99.90;;;;;;5043939;28;20200;-29
2023/05/02 01:44:24;;;;;;;41.40;25.87;;;14.80;99.90;;;;;;5042110;28;20220;-29
2023/05/02 01:46:55;;;;;;;38.20;24.50;;;14.80;99.90;;;;;;5038272;28;20204;-29
2023/05/02 01:49:24;;;;;;;39.70;26.00;;;14.80;99.90;;;;;;5028604;28;20216;-29
2023/05/02 01:51:52;;;;;;;38.33;25.52;;;14.70;99.90;;;;;;5044023;28;20287;-29
2023/05/02 01:54:23;;;;;;;37.60;25.43;;;14.70;99.90;;;;;;5034645;28;20220;-29
2023/05/02 01:56:56;;;;;;;39.30;26.00;;;14.70;99.90;;;;;;5047617;28;20259;-29
2023/05/02 01:59:27;;;;;;;39.00;26.50;;;14.70;99.90;;;;;;5041698;28;20331;-29
2023/05/02 02:01:58;;;;;;;41.30;25.70;;;14.70;99.90;;;;;;5037818;28;20750;-29
2023/05/02 02:04:27;;;;;;;39.63;26.23;;;14.70;99.90;;;;;;5032941;28;20204;-29
2023/05/02 02:07:05;;;;;;;38.20;25.80;;;14.70;99.90;;;;;;5043303;28;20231;-29
2023/05/02 02:09:35;;;;;;;37.80;25.73;;;14.60;99.90;;;;;;5041614;28;20236;-29
2023/05/02 02:12:11;;;;;;;38.47;25.02;;;14.60;99.90;;;;;;5043951;28;20287;-29
2023/05/02 02:14:45;;;;;;;38.63;25.37;;;14.60;99.90;;;;;;5049583;28;20278;-29
2023/05/02 02:17:31;;;;;;;37.40;25.77;;;14.50;99.90;;;;;;5036377;28;20254;-29
2023/05/02 02:20:02;;;;;;;35.65;24.08;;;14.50;99.90;;;;;;5027786;28;20710;-29
2023/05/02 02:22:33;;;;;;;39.38;25.70;;;14.40;99.90;;;;;;5022277;28;20239;-29
2023/05/02 02:25:05;;;;;;;38.13;26.00;;;14.50;99.90;;;;;;5039545;28;20204;-29
2023/05/02 02:27:35;;;;;;;38.73;25.80;;;14.40;99.90;;;;;;5037330;28;20745;-29
2023/05/02 02:30:02;;;;;;;41.15;26.80;;;14.40;99.90;;;;;;5043361;28;20632;-29
2023/05/02 02:32:30;;;;;;;37.93;25.70;;;14.40;99.90;;;;;;5023716;28;20201;-29
2023/05/02 02:34:58;;;;;;;40.10;26.17;;;14.40;99.90;;;;;;5028287;28;20209;-29
2023/05/02 02:37:30;;;;;;;38.20;25.90;;;14.40;99.90;;;;;;5024158;28;20209;-29
2023/05/02 02:40:12;;;;;;;36.17;24.97;;;14.40;99.90;;;;;;5032581;28;20209;-29
2023/05/02 02:42:42;;;;;;;35.37;24.63;;;14.40;99.90;;;;;;5039408;28;20303;-29
2023/05/02 02:45:37;;;;;;;34.33;23.30;;;14.40;99.90;;;;;;5038122;28;20201;-29
2023/05/02 02:48:18;;;;;;;34.67;24.67;;;14.40;99.90;;;;;;5046799;28;20220;-29
2023/05/02 02:51:00;;;;;;;33.73;23.70;;;14.40;99.90;;;;;;5028010;28;20216;-29
2023/05/02 02:53:59;;;;;;;33.80;24.27;;;14.50;99.90;;;;;;5025792;28;20209;-29
2023/05/02 02:56:35;;;;;;;38.40;26.17;;;14.40;99.90;;;;;;5031412;28;20545;-29
2023/05/02 02:59:11;;;;;;;35.60;24.83;;;14.40;99.90;;;;;;5036274;28;20323;-29
2023/05/02 03:01:45;;;;;;;39.07;26.63;;;14.40;99.90;;;;;;5025633;28;20663;-29
2023/05/02 03:04:15;;;;;;;36.03;24.35;;;14.40;99.90;;;;;;5027191;28;20258;-29
2023/05/02 03:06:51;;;;;;;34.15;23.38;;;14.30;99.90;;;;;;5037312;28;20397;-29
2023/05/02 03:09:21;;;;;;;34.92;23.45;;;14.30;99.90;;;;;;5044012;28;20219;-29
2023/05/02 03:11:53;;;;;;;36.22;25.20;;;14.30;99.90;;;;;;5028900;28;20289;-29
2023/05/02 03:14:22;;;;;;;33.88;24.90;;;14.30;99.90;;;;;;5044153;28;20641;-29
2023/05/02 03:16:50;;;;;;;34.38;23.85;;;14.30;99.90;;;;;;5041458;28;20200;-29
2023/05/02 03:19:22;;;;;;;39.57;25.53;;;14.30;99.90;;;;;;5042967;28;20349;-29
2023/05/02 03:21:52;;;;;;;36.67;25.63;;;14.20;99.90;;;;;;5038656;28;20282;-29
2023/05/02 03:24:19;;;;;;;38.65;27.17;;;14.20;99.90;;;;;;5045015;28;20660;-29
2023/05/02 03:26:46;;;;;;;40.78;27.20;;;14.20;99.90;;;;;;5037324;28;20291;-29
2023/05/02 03:29:16;;;;;;;42.65;28.25;;;14.30;99.90;;;;;;5026416;28;20259;-29
2023/05/02 03:31:43;;;;;;;40.78;26.48;;;14.20;99.90;;;;;;5044467;28;20360;-29
2023/05/02 03:34:15;;;;;;;40.50;27.23;;;14.20;99.90;;;;;;5045526;28;20270;-29
2023/05/02 03:36:42;;;;;;;37.75;26.02;;;14.20;99.90;;;;;;5038956;28;20222;-29
2023/05/02 03:39:14;;;;;;;39.20;26.87;;;14.20;99.90;;;;;;5028653;28;20235;-29
2023/05/02 03:41:43;;;;;;;40.67;25.97;;;14.30;99.90;;;;;;5041872;28;20316;-29
2023/05/02 03:44:13;;;;;;;37.87;25.77;;;14.20;99.90;;;;;;5026874;28;20292;-29
2023/05/02 03:46:42;;;;;;;36.33;24.23;;;14.20;99.90;;;;;;5044116;28;20251;-29
2023/05/02 03:49:10;;;;;;;33.60;22.37;;;14.20;99.90;;;;;;5045124;28;20627;-29
2023/05/02 03:51:37;;;;;;;33.10;23.37;;;14.20;99.90;;;;;;5050282;28;20208;-29
2023/05/02 03:54:08;;;;;;;35.42;22.50;;;14.20;99.90;;;;;;5026097;28;20757;-29
2023/05/02 03:56:38;;;;;;;33.17;23.03;;;14.20;99.90;;;;;;5041375;28;20320;-29
2023/05/02 03:59:08;;;;;;;30.35;21.65;;;14.10;99.90;;;;;;5043151;28;20316;-29
2023/05/02 04:01:38;;;;;;;30.23;21.13;;;14.10;99.90;;;;;;5037019;28;20197;-29
2023/05/02 04:04:05;;;;;;;29.73;20.73;;;14.10;99.90;;;;;;5046265;28;20204;-29
2023/05/02 04:06:32;;;;;;;27.83;20.80;;;14.10;99.90;;;;;;5043142;28;20220;-29
2023/05/02 04:09:02;;;;;;;31.23;20.63;;;14.10;99.90;;;;;;5040414;28;20200;-29
2023/05/02 04:11:34;;;;;;;28.93;19.90;;;14.10;99.90;;;;;;5043455;28;20208;-29
2023/05/02 04:14:10;;;;;;;26.20;20.03;;;14.10;99.90;;;;;;5044786;28;20196;-29
2023/05/02 04:16:39;;;;;;;30.45;20.02;;;14.00;99.90;;;;;;5042493;28;20218;-29
2023/05/02 04:19:09;;;;;;;30.77;20.67;;;14.10;99.90;;;;;;5025623;28;20220;-29
2023/05/02 04:21:39;;;;;;;27.13;19.53;;;14.00;99.90;;;;;;5025364;28;20529;-29
2023/05/02 04:24:12;;;;;;;32.77;21.20;;;14.00;99.90;;;;;;5025702;28;20201;-29
2023/05/02 04:26:39;;;;;;;26.67;19.40;;;14.00;99.90;;;;;;5040642;28;20220;-29
2023/05/02 04:29:14;;;;;;;29.30;19.52;;;14.00;99.90;;;;;;5025351;28;20682;-29
2023/05/02 04:31:43;;;;;;;27.13;19.60;;;14.00;99.90;;;;;;5025653;28;20299;-29
2023/05/02 04:34:11;;;;;;;29.83;19.83;;;14.00;99.90;;;;;;5022944;28;20197;-30
2023/05/02 04:36:44;;;;;;;27.55;19.10;;;14.00;99.90;;;;;;5028047;28;20619;-29
2023/05/02 04:39:12;;;;;;;29.97;20.13;;;14.00;99.90;;;;;;5032925;28;20319;-29
2023/05/02 04:41:42;;;;;;;29.53;20.17;;;14.00;99.90;;;;;;5043648;28;20282;-30
2023/05/02 04:44:13;;;;;;;29.53;19.87;;;14.00;99.90;;;;;;5038235;28;20291;-29
2023/05/02 04:46:43;;;;;;;27.93;18.97;;;14.00;99.90;;;;;;5026883;28;20223;-29
2023/05/02 04:49:13;;;;;;;28.58;20.25;;;14.00;99.90;;;;;;5027170;28;20208;-29
2023/05/02 04:51:40;;;;;;;27.00;19.80;;;14.00;99.90;;;;;;5025566;28;20303;-29
2023/05/02 04:54:11;;;;;;;28.23;18.40;;;14.00;99.90;;;;;;5042838;28;20212;-29
2023/05/02 04:56:43;;;;;;;29.05;20.10;;;14.00;99.90;;;;;;5039141;28;20815;-29
2023/05/02 04:59:12;;;;;;;27.23;19.33;;;14.00;99.90;;;;;;5039967;28;20301;-29
2023/05/02 05:01:45;;;;;;;31.23;20.10;;;14.10;99.90;;;;;;5043824;28;20204;-29
2023/05/02 05:04:17;;;;;;;30.07;20.87;;;14.10;99.90;;;;;;5038114;28;20311;-29
2023/05/02 05:06:48;;;;;;;29.40;21.67;;;14.10;99.90;;;;;;5027948;28;20203;-29
2023/05/02 05:09:15;;;;;;;29.93;21.67;;;14.10;99.90;;;;;;5039132;28;20300;-29
2023/05/02 05:11:44;;;;;;;37.53;23.87;;;14.10;99.90;;;;;;5044700;28;20229;-29
2023/05/02 05:14:16;;;;;;;36.37;24.07;;;14.10;99.90;;;;;;5042131;28;20763;-30
2023/05/02 05:16:47;;;;;;;33.33;23.48;;;14.10;99.90;;;;;;5028581;28;20690;-29
2023/05/02 05:19:17;;;;;;;35.40;23.60;;;14.10;99.90;;;;;;5038123;28;20807;-29
2023/05/02 05:21:44;;;;;;;32.97;23.40;;;14.20;99.90;;;;;;5043441;28;20644;-29
2023/05/02 05:24:12;;;;;;;35.20;23.27;;;14.20;99.90;;;;;;5043967;28;20614;-29
2023/05/02 05:26:39;;;;;;;34.63;24.00;;;14.20;99.90;;;;;;5032330;28;20593;-29
2023/05/02 05:29:07;;;;;;;34.43;24.63;;;14.20;99.90;;;;;;5038753;28;20580;-29
2023/05/02 05:31:36;;;;;;;35.03;23.33;;;14.20;99.90;;;;;;5032240;28;20212;-29
2023/05/02 05:34:03;;;;;;;34.85;24.25;;;14.20;99.90;;;;;;5041320;28;20574;-30
2023/05/02 05:36:33;;;;;;;35.40;24.03;;;14.20;99.90;;;;;;5036507;28;20216;-30
2023/05/02 05:39:03;;;;;;;33.78;23.02;;;14.20;99.90;;;;;;5038377;28;20217;-30
2023/05/02 05:41:34;;;;;;;31.43;21.97;;;14.30;99.90;;;;;;5033917;28;20300;-29
2023/05/02 05:44:01;;;;;;;33.43;22.60;;;14.20;99.90;;;;;;5029481;28;20682;-29
2023/05/02 05:46:30;;;;;;;32.83;21.35;;;14.20;99.90;;;;;;5031631;28;20217;-29
2023/05/02 05:48:57;;;;;;;31.15;22.58;;;14.20;99.90;;;;;;5033387;28;20232;-29
2023/05/02 05:51:27;;;;;;;34.00;23.23;;;14.20;99.90;;;;;;5034308;28;20204;-29
2023/05/02 05:53:57;;;;;;;29.27;20.83;;;14.30;99.90;;;;;;5030056;28;20311;-29
2023/05/02 05:56:26;;;;;;;27.75;19.02;;;14.20;99.90;;;;;;5021631;28;20659;-30
2023/05/02 05:58:54;;;;;;;27.17;18.80;;;14.30;99.90;;;;;;5028388;28;20212;-29
2023/05/02 06:01:21;;;;;;;25.80;16.63;;;14.30;99.90;;;;;;5033334;28;20306;-29
2023/05/02 06:03:50;;;;;;;23.20;16.42;;;14.30;99.90;;;;;;5030027;28;20223;-30
2023/05/02 06:06:21;;;;;;;22.48;16.58;;;14.30;99.90;;;;;;5026062;28;20605;-30
2023/05/02 06:08:50;;;;;;;24.30;17.08;;;14.30;99.90;;;;;;5033983;28;20299;-29
2023/05/02 06:11:20;;;;;;;23.38;16.65;;;14.30;99.90;;;;;;5028018;28;20226;-29
2023/05/02 06:13:49;;;;;;;23.40;15.30;;;14.30;99.90;;;;;;5032430;28;20763;-30
2023/05/02 06:16:19;;;;;;;21.43;15.73;;;14.30;99.90;;;;;;5022259;28;20636;-29
2023/05/02 06:18:53;;;;;;;19.20;14.57;;;14.30;99.90;;;;;;5032077;28;20719;-29
2023/05/02 06:21:22;;;;;;;18.93;14.57;;;14.30;99.90;;;;;;5034007;28;20773;-29
2023/05/02 06:23:52;;;;;;;18.87;13.53;;;14.30;99.90;;;;;;5024946;28;20738;-29
2023/05/02 06:26:20;;;;;;;16.33;12.60;;;14.30;99.90;;;;;;5035028;28;20200;-30
2023/05/02 06:28:55;;;;;;;17.90;12.07;;;14.30;99.90;;;;;;5038038;28;20227;-29
2023/05/02 06:31:22;;;;;;;15.25;11.43;;;14.30;99.90;;;;;;5040657;28;20208;-30
2023/05/02 06:33:51;;;;;;;16.08;11.48;;;14.30;99.90;;;;;;5029835;28;20204;-29
2023/05/02 06:36:22;;;;;;;12.20;10.32;;;14.30;99.90;;;;;;5037110;28;20251;-30
2023/05/02 06:38:49;;;;;;;16.95;9.85;;;14.20;99.90;;;;;;5038760;28;20220;-29
2023/05/02 06:41:19;;;;;;;17.58;10.38;;;14.20;99.90;;;;;;5036423;28;20211;-30
2023/05/02 06:43:48;;;;;;;13.98;9.40;;;14.20;99.90;;;;;;5024484;28;20197;-29
2023/05/02 06:46:22;;;;;;;12.98;8.85;;;14.20;99.90;;;;;;5033681;28;20298;-29
2023/05/02 06:48:52;;;;;;;13.60;8.80;;;14.20;99.90;;;;;;5033855;28;20238;-29
2023/05/02 06:51:21;;;;;;;10.63;7.67;;;14.10;99.90;;;;;;5028505;28;20206;-29
2023/05/02 06:53:49;;;;;;;12.90;7.97;;;14.10;99.90;;;;;;5033980;28;20818;-29
2023/05/02 06:56:18;;;;;;;11.07;6.70;;;14.10;99.90;;;;;;5035028;28;21036;-29
2023/05/02 06:58:48;;;;;;;11.23;6.85;;;14.10;99.90;;;;;;5024397;28;20208;-29
2023/05/02 07:01:18;;;;;;;10.43;6.90;;;14.10;99.90;;;;;;5025150;28;20829;-29
2023/05/02 07:03:46;;;;;;;12.73;7.43;;;14.10;99.90;;;;;;5035478;28;20682;-29
2023/05/02 07:06:15;;;;;;;8.37;5.33;;;14.10;99.90;;;;;;5033601;28;20228;-29
2023/05/02 07:08:45;;;;;;;6.90;4.55;;;14.10;99.90;;;;;;5023781;28;20224;-29
2023/05/02 07:11:12;;;;;;;8.00;4.03;;;14.00;99.90;;;;;;5033278;28;20223;-29
2023/05/02 07:13:41;;;;;;;9.83;4.03;;;14.00;99.90;;;;;;5038007;28;20892;-29
2023/05/02 07:16:09;;;;;;;7.73;4.00;;;14.00;99.90;;;;;;5039327;28;20216;-29
2023/05/02 07:18:36;;;;;;;11.37;4.10;;;13.90;99.90;;;;;;5041180;28;20280;-29
2023/05/02 07:21:06;;;;;;;4.50;3.20;;;13.90;99.90;;;;;;5038737;28;20212;-29
2023/05/02 07:23:33;;;;;;;7.90;3.73;;;13.90;99.90;;;;;;5024428;28;20192;-29
2023/05/02 07:26:04;;;;;;;6.60;3.42;;;13.90;99.90;;;;;;5025752;28;20209;-29
2023/05/02 07:28:32;;;;;;;8.05;4.10;;;13.90;99.90;;;;;;5037427;28;20208;-29
2023/05/02 07:31:03;;;;;;;6.07;3.77;;;13.90;99.90;;;;;;5031112;28;20684;-29
2023/05/02 07:33:30;;;;;;;8.37;3.63;;;13.90;99.90;;;;;;5027009;28;20713;-29
2023/05/02 07:36:03;;;;;;;9.20;3.90;;;13.90;99.90;;;;;;5027031;28;20201;-29
2023/05/02 07:38:30;;;;;;;4.93;3.20;;;13.90;99.90;;;;;;5024056;28;20365;-30
2023/05/02 07:40:59;;;;;;;6.23;3.33;;;13.90;99.90;;;;;;5040873;28;20290;-29
2023/05/02 07:43:26;;;;;;;5.83;3.27;;;13.90;99.90;;;;;;5030794;28;20236;-29
2023/05/02 07:45:54;;;;;;;4.90;2.93;;;14.00;99.90;;;;;;5039732;28;20251;-29
2023/05/02 07:48:24;;;;;;;7.07;2.80;;;14.00;99.90;;;;;;5040922;28;20673;-29
2023/05/02 07:50:57;;;;;;;4.33;2.60;;;14.10;99.90;;;;;;5033938;28;20212;-29
2023/05/02 07:53:24;;;;;;;5.27;2.23;;;14.10;99.90;;;;;;5040179;28;20209;-29
2023/05/02 07:55:51;;;;;;;5.67;2.87;;;14.10;99.90;;;;;;5043433;28;20353;-29
2023/05/02 07:58:20;;;;;;;6.87;2.43;;;14.20;99.90;;;;;;5030774;28;20847;-29
2023/05/02 08:00:50;;;;;;;7.63;2.47;;;14.20;99.90;;;;;;5035509;28;20256;-29
2023/05/02 08:03:17;;;;;;;5.77;2.30;;;14.20;99.90;;;;;;5026593;28;20229;-29
2023/05/02 08:05:45;;;;;;;4.30;2.38;;;14.20;99.90;;;;;;5034865;28;20331;-29
2023/05/02 08:08:12;;;;;;;4.30;2.00;;;14.20;99.90;;;;;;5038750;28;20286;-29
2023/05/02 08:10:39;;;;;;;4.47;2.50;;;14.30;99.90;;;;;;5033176;28;20610;-29
2023/05/02 08:13:10;;;;;;;3.83;2.03;;;14.30;99.90;;;;;;5025870;28;20212;-29
2023/05/02 08:15:39;;;;;;;8.20;2.73;;;14.40;99.90;;;;;;5037509;28;20533;-29
2023/05/02 08:18:07;;;;;;;5.70;2.70;;;14.40;99.90;;;;;;5026984;28;20666;-29
2023/05/02 08:20:39;;;;;;;6.40;2.53;;;14.40;99.90;;;;;;5039146;28;20224;-29
2023/05/02 08:23:11;;;;;;;3.67;2.47;;;14.40;99.90;;;;;;5036279;28;20216;-29
2023/05/02 08:25:43;;;;;;;8.00;2.53;;;14.30;99.90;;;;;;5036684;28;20203;-29
2023/05/02 08:28:12;;;;;;;5.55;2.75;;;14.30;99.90;;;;;;5022568;28;20235;-29
2023/05/02 08:30:44;;;;;;;4.37;2.70;;;14.30;99.90;;;;;;5025098;28;20204;-29
2023/05/02 08:33:11;;;;;;;3.83;2.23;;;14.20;99.90;;;;;;5029884;28;20223;-29
2023/05/02 08:35:38;;;;;;;6.57;3.00;;;14.30;99.90;;;;;;5031196;28;20324;-29
2023/05/02 08:38:13;;;;;;;5.97;2.47;;;14.30;99.90;;;;;;5043355;28;20204;-29
2023/05/02 08:40:42;;;;;;;4.97;2.90;;;14.40;99.90;;;;;;5043648;28;20546;-29
2023/05/02 08:43:15;;;;;;;5.60;3.00;;;14.40;99.90;;;;;;5042442;28;20200;-29
2023/05/02 08:45:45;;;;;;;6.23;2.67;;;14.50;99.90;;;;;;5026266;28;20228;-29
2023/05/02 08:48:15;;;;;;;7.23;3.27;;;14.60;99.90;;;;;;5023567;28;20252;-29
2023/05/02 08:50:47;;;;;;;5.50;2.87;;;14.70;99.90;;;;;;5035837;28;20216;-29
2023/05/02 08:53:22;;;;;;;5.37;3.00;;;14.70;99.90;;;;;;5042391;28;20299;-29
2023/05/02 08:55:52;;;;;;;5.40;3.27;;;14.80;99.90;;;;;;5035739;28;20247;-29
2023/05/02 08:58:26;;;;;;;3.95;3.50;;;14.90;99.90;;;;;;5039781;28;20483;-29
2023/05/02 09:01:03;;;;;;;9.20;3.30;;;15.00;99.90;;;;;;5034751;28;20220;-29
2023/05/02 09:03:33;;;;;;;8.00;3.80;;;15.00;99.90;;;;;;5027816;28;20300;-33
2023/05/02 09:06:14;;;;;;;8.85;3.40;;;15.10;99.90;;;;;;5024476;28;20282;-34
2023/05/02 09:08:45;;;;;;;5.10;2.80;;;15.10;99.90;;;;;;5030657;28;20259;-34
2023/05/02 09:11:12;;;;;;;5.70;3.00;;;15.20;99.90;;;;;;5024516;28;20287;-34
2023/05/02 09:13:44;;;;;;;5.03;2.47;;;15.20;99.90;;;;;;5022814;28;20624;-34
2023/05/02 09:16:12;;;;;;;4.93;2.70;;;15.20;99.90;;;;;;5047173;28;20212;-34
2023/05/02 09:18:44;;;;;;;5.50;2.70;;;15.20;99.90;;;;;;5038548;28;20262;-34
2023/05/02 09:21:20;;;;;;;5.53;2.63;;;15.20;99.90;;;;;;5022964;28;20728;-34
2023/05/02 09:23:54;;;;;;;5.73;2.70;;;15.20;99.90;;;;;;5027147;28;20201;-34
2023/05/02 09:26:32;;;;;;;5.28;2.50;;;15.30;99.90;;;;;;5024023;28;20794;-34
2023/05/02 09:29:02;;;;;;;7.95;2.50;;;15.30;99.90;;;;;;5027300;28;20684;-34
2023/05/02 09:31:36;;;;;;;6.03;2.22;;;15.40;99.90;;;;;;5029439;28;20213;-34
2023/05/02 09:34:21;;;;;;;6.05;2.35;;;15.40;99.90;;;;;;5028635;28;20632;-34
2023/05/02 09:36:53;;;;;;;9.23;2.55;;;15.40;99.90;;;;;;5043620;28;20216;-34
2023/05/02 09:39:27;;;;;;;4.20;2.08;;;15.40;99.90;;;;;;5027217;28;20291;-34
2023/05/02 09:42:02;;;;;;;4.05;2.22;;;15.50;99.90;;;;;;5039685;28;20525;-34
2023/05/02 09:44:39;;;;;;;5.05;2.38;;;15.50;99.90;;;;;;5037925;28;20589;-34
2023/05/02 09:47:09;;;;;;;7.95;3.10;;;15.50;99.90;;;;;;5041379;28;20666;-34
2023/05/02 09:49:46;;;;;;;4.22;2.35;;;15.50;99.90;;;;;;5035405;28;20378;-34
2023/05/02 09:52:20;;;;;;;5.03;2.50;;;15.60;99.90;;;;;;5028225;28;20661;-34
2023/05/02 09:54:55;;;;;;;5.37;2.30;;;15.60;99.90;;;;;;5039229;28;20242;-34
2023/05/02 09:57:39;;;;;;;7.82;2.60;;;15.60;99.90;;;;;;5026024;28;20240;-34
2023/05/02 10:00:09;;;;;;;7.13;2.42;;;15.70;99.90;;;;;;5042750;28;20674;-34
2023/05/02 10:02:41;;;;;;;5.60;2.30;;;15.60;99.90;;;;;;5034840;28;20232;-34
2023/05/02 10:05:10;;;;;;;6.68;2.22;;;15.70;99.90;;;;;;5034064;28;20310;-35
2023/05/02 10:07:40;;;;;;;8.27;3.00;;;15.70;99.90;;;;;;5034016;28;20718;-35
2023/05/02 10:10:15;;;;;;;7.60;2.85;;;15.70;99.90;;;;;;5030313;28;20216;-34
2023/05/02 10:12:46;;;;;;;4.22;2.45;;;15.70;99.90;;;;;;5034617;28;20760;-34
2023/05/02 10:15:15;;;;;;;4.43;2.40;;;15.70;99.90;;;;;;5029334;28;20193;-34
2023/05/02 10:17:48;;;;;;;5.07;2.80;;;15.70;99.90;;;;;;5037780;28;20289;-34
2023/05/02 10:20:27;;;;;;;5.35;3.17;;;15.80;99.90;;;;;;5036561;28;20322;-34
2023/05/02 10:22:58;;;;;;;4.93;2.80;;;15.80;99.90;;;;;;5042571;28;20284;-34
2023/05/02 10:25:25;;;;;;;8.15;3.53;;;15.80;99.90;;;;;;5037726;28;20213;-34
2023/05/02 10:27:54;;;;;;;4.85;3.20;;;15.90;99.90;;;;;;5039205;28;20240;-34
2023/05/02 10:30:22;;;;;;;9.33;3.67;;;15.90;99.90;;;;;;5043028;28;20251;-34
2023/05/02 10:32:52;;;;;;;7.22;3.42;;;16.00;99.90;;;;;;5042614;28;20660;-34
2023/05/02 10:35:21;;;;;;;5.85;2.97;;;16.10;99.90;;;;;;5032809;28;20211;-34
2023/05/02 10:37:49;;;;;;;7.23;3.67;;;16.10;99.90;;;;;;5028323;28;20299;-34
2023/05/02 10:40:22;;;;;;;6.30;3.75;;;16.20;99.90;;;;;;5040263;28;20591;-34
2023/05/02 10:42:52;;;;;;;5.93;3.47;;;16.30;99.90;;;;;;5031225;28;20232;-34
2023/05/02 10:45:33;;;;;;;7.43;3.70;;;16.30;99.90;;;;;;5030441;28;20299;-34
2023/05/02 10:48:24;;;;;;;5.10;3.30;;;16.30;99.90;;;;;;5041261;28;20320;-34
2023/05/02 10:50:52;;;;;;;7.40;3.80;;;16.40;99.90;;;;;;5049396;28;20614;-34
2023/05/02 10:53:33;;;;;;;5.82;3.78;;;16.50;99.90;;;;;;5021736;28;20354;-34
2023/05/02 10:56:12;;;;;;;7.25;4.10;;;16.50;99.90;;;;;;5029535;28;20245;-34
2023/05/02 10:58:47;;;;;;;4.80;3.70;;;16.50;99.90;;;;;;5037335;28;20742;-34
2023/05/02 11:01:29;;;;;;;6.47;3.75;;;16.60;99.90;;;;;;5041548;28;20208;-34
2023/05/02 11:03:58;;;;;;;4.95;3.40;;;16.60;99.90;;;;;;5025982;28;20669;-34
2023/05/02 11:06:29;;;;;;;8.13;3.88;;;16.70;99.90;;;;;;5032871;28;20322;-34
2023/05/02 11:09:13;;;;;;;7.57;3.85;;;16.70;99.90;;;;;;5045540;28;20212;-34
2023/05/02 11:11:44;;;;;;;8.05;4.10;;;16.70;99.90;;;;;;5047794;28;20834;-34
2023/05/02 11:14:26;;;;;;;6.85;3.55;;;16.70;99.90;;;;;;5028461;28;20199;-34
2023/05/02 11:17:02;;;;;;;6.03;3.20;;;16.70;99.90;;;;;;5041736;28;20242;-34
2023/05/02 11:19:44;;;;;;;7.53;3.67;;;16.70;99.90;;;;;;5045977;28;20204;-34
2023/05/02 11:22:20;;;;;;;5.22;3.80;;;16.70;99.90;;;;;;5044454;28;20200;-34
2023/05/02 11:24:50;;;;;;;8.27;3.70;;;16.70;99.90;;;;;;5042238;28;20295;-34
2023/05/02 11:27:29;;;;;;;7.93;3.65;;;16.70;99.90;;;;;;5043232;28;20274;-34
2023/05/02 11:30:08;;;;;;;8.50;4.03;;;16.80;99.90;;;;;;5041640;28;20200;-34
2023/05/02 11:32:46;;;;;;;6.97;3.00;;;16.80;99.90;;;;;;5045662;28;20216;-34
2023/05/02 11:35:31;;;;;;;8.43;3.30;;;16.80;99.90;;;;;;5037491;28;20197;-34
2023/05/02 11:38:03;;;;;;;6.75;3.13;;;16.80;99.90;;;;;;5042695;28;20647;-34
2023/05/02 11:40:33;;;;;;;7.63;3.72;;;16.90;99.90;;;;;;5046339;28;20635;-34
2023/05/02 11:43:10;;;;;;;5.93;2.60;;;17.00;99.90;;;;;;5034147;28;20322;-34
2023/05/02 11:45:43;;;;;;;12.15;3.60;;;17.00;99.90;;;;;;5039515;28;20196;-34
2023/05/02 11:48:16;;;;;;;5.00;2.90;;;16.90;99.90;;;;;;5042532;28;20200;-29
2023/05/02 11:50:47;;;;;;;4.72;2.90;;;16.90;99.90;;;;;;5043671;28;20200;-29
2023/05/02 11:53:22;;;;;;;6.13;3.25;;;16.80;99.90;;;;;;5043098;28;20293;-29
2023/05/02 11:55:58;;;;;;;4.25;2.50;;;16.80;99.90;;;;;;5039163;28;20232;-29
2023/05/02 11:58:32;;;;;;;8.80;3.35;;;16.80;99.90;;;;;;5032215;28;20228;-29
2023/05/02 12:01:17;;;;;;;9.20;3.30;;;16.80;99.90;;;;;;5034865;28;20309;-29
2023/05/02 12:03:44;;;;;;;7.78;3.10;;;16.80;99.70;;;;;;5036710;28;20204;-28
2023/05/02 12:06:17;;;;;;;10.32;3.10;;;16.80;99.90;;;;;;5028120;28;20407;-29
2023/05/02 12:08:45;;;;;;;6.80;3.20;;;16.90;99.90;;;;;;5024790;28;20308;-29
2023/05/02 12:11:21;;;;;;;7.30;2.75;;;16.80;99.40;;;;;;5025448;28;20247;-29
2023/05/02 12:13:49;;;;;;;6.68;3.13;;;16.80;99.90;;;;;;5026148;28;20765;-29
2023/05/02 12:16:21;;;;;;;5.65;2.70;;;16.80;99.80;;;;;;5026956;28;20282;-29
2023/05/02 12:18:51;;;;;;;4.78;2.65;;;16.80;99.90;;;;;;5025223;28;21133;-29
2023/05/02 12:21:21;;;;;;;5.88;2.72;;;16.80;99.90;;;;;;5034040;28;20314;-29
2023/05/02 12:23:51;;;;;;;5.53;3.13;;;16.80;99.90;;;;;;5039220;28;20300;-28
2023/05/02 12:26:30;;;;;;;5.82;3.10;;;16.80;99.90;;;;;;5028195;28;20220;-29
2023/05/02 12:28:58;;;;;;;6.55;2.85;;;16.80;99.90;;;;;;5024383;28;20207;-29
2023/05/02 12:31:29;;;;;;;8.60;3.58;;;16.90;99.90;;;;;;5036132;28;20291;-29
2023/05/02 12:34:01;;;;;;;7.88;3.47;;;16.90;99.90;;;;;;5045048;28;20200;-29
2023/05/02 12:36:34;;;;;;;6.05;3.42;;;16.90;99.90;;;;;;5043600;28;20207;-29
2023/05/02 12:39:03;;;;;;;7.20;2.88;;;17.00;99.90;;;;;;5043998;28;20208;-28
2023/05/02 12:41:31;;;;;;;5.57;3.00;;;17.00;99.90;;;;;;5046122;28;20944;-28
2023/05/02 12:43:59;;;;;;;5.60;3.45;;;17.00;99.90;;;;;;5045640;28;20333;-28
2023/05/02 12:46:30;;;;;;;7.22;3.33;;;17.00;99.40;;;;;;5041035;28;20277;-28
2023/05/02 12:49:08;;;;;;;5.85;3.53;;;17.00;99.30;;;;;;5038240;28;20208;-28
2023/05/02 12:51:37;;;;;;;7.28;3.15;;;16.90;98.80;;;;;;5045603;28;20211;-28
2023/05/02 12:54:07;;;;;;;5.88;3.22;;;16.80;98.40;;;;;;5044943;28;20216;-28
2023/05/02 12:56:43;;;;;;;7.45;3.40;;;16.80;98.50;;;;;;5044006;28;20236;-29